sensor_id;sensor_type;location;lat;lon;timestamp;P1;durP1;ratioP1;P2;durP2;ratioP2
53925;SDS011;39836;52.754;6.866;2023-08-31T00:01:30;8.80;;;4.97;;
53925;SDS011;39836;52.754;6.866;2023-08-31T00:03:55;11.05;;;5.47;;
53925;SDS011;39836;52.754;6.866;2023-08-31T00:06:21;14.30;;;5.00;;
53925;SDS011;39836;52.754;6.866;2023-08-31T00:08:47;8.38;;;4.43;;
53925;SDS011;39836;52.754;6.866;2023-08-31T00:11:13;10.82;;;5.50;;
53925;SDS011;39836;52.754;6.866;2023-08-31T00:13:40;8.57;;;5.20;;
53925;SDS011;39836;52.754;6.866;2023-08-31T00:16:05;11.55;;;5.45;;
53925;SDS011;39836;52.754;6.866;2023-08-31T00:18:34;13.85;;;5.18;;
53925;SDS011;39836;52.754;6.866;2023-08-31T00:21:01;11.38;;;4.80;;
53925;SDS011;39836;52.754;6.866;2023-08-31T00:23:28;17.02;;;5.70;;
53925;SDS011;39836;52.754;6.866;2023-08-31T00:25:54;8.20;;;4.72;;
53925;SDS011;39836;52.754;6.866;2023-08-31T00:28:22;11.23;;;5.25;;
53925;SDS011;39836;52.754;6.866;2023-08-31T00:30:48;13.02;;;6.07;;
53925;SDS011;39836;52.754;6.866;2023-08-31T00:33:14;13.32;;;5.68;;
53925;SDS011;39836;52.754;6.866;2023-08-31T00:35:40;13.18;;;5.03;;
53925;SDS011;39836;52.754;6.866;2023-08-31T00:38:14;12.73;;;6.70;;
53925;SDS011;39836;52.754;6.866;2023-08-31T00:40:40;12.30;;;5.05;;
53925;SDS011;39836;52.754;6.866;2023-08-31T00:43:10;14.68;;;5.13;;
53925;SDS011;39836;52.754;6.866;2023-08-31T00:45:36;12.27;;;5.68;;
53925;SDS011;39836;52.754;6.866;2023-08-31T00:48:04;15.35;;;5.78;;
53925;SDS011;39836;52.754;6.866;2023-08-31T00:50:30;12.63;;;5.47;;
53925;SDS011;39836;52.754;6.866;2023-08-31T00:52:56;21.63;;;5.82;;
53925;SDS011;39836;52.754;6.866;2023-08-31T00:55:22;18.15;;;5.82;;
53925;SDS011;39836;52.754;6.866;2023-08-31T00:57:48;13.27;;;6.10;;
53925;SDS011;39836;52.754;6.866;2023-08-31T01:00:14;17.13;;;6.32;;
53925;SDS011;39836;52.754;6.866;2023-08-31T01:05:25;13.23;;;6.35;;
53925;SDS011;39836;52.754;6.866;2023-08-31T01:08:24;21.67;;;6.00;;
53925;SDS011;39836;52.754;6.866;2023-08-31T01:14:00;14.55;;;7.18;;
53925;SDS011;39836;52.754;6.866;2023-08-31T01:16:33;16.77;;;7.40;;
53925;SDS011;39836;52.754;6.866;2023-08-31T01:19:01;18.15;;;6.90;;
53925;SDS011;39836;52.754;6.866;2023-08-31T01:21:33;13.48;;;6.72;;
53925;SDS011;39836;52.754;6.866;2023-08-31T01:24:02;61.80;;;7.55;;
53925;SDS011;39836;52.754;6.866;2023-08-31T01:26:30;21.52;;;6.72;;
53925;SDS011;39836;52.754;6.866;2023-08-31T01:28:57;24.88;;;6.72;;
53925;SDS011;39836;52.754;6.866;2023-08-31T01:31:24;15.50;;;6.70;;
53925;SDS011;39836;52.754;6.866;2023-08-31T01:33:50;12.93;;;5.90;;
53925;SDS011;39836;52.754;6.866;2023-08-31T01:38:58;14.30;;;6.65;;
53925;SDS011;39836;52.754;6.866;2023-08-31T01:41:33;12.63;;;6.85;;
53925;SDS011;39836;52.754;6.866;2023-08-31T01:44:00;18.55;;;7.47;;
53925;SDS011;39836;52.754;6.866;2023-08-31T01:46:27;21.55;;;8.07;;
53925;SDS011;39836;52.754;6.866;2023-08-31T01:48:54;15.93;;;7.35;;
53925;SDS011;39836;52.754;6.866;2023-08-31T01:51:20;11.25;;;6.93;;
53925;SDS011;39836;52.754;6.866;2023-08-31T01:53:45;19.00;;;7.82;;
53925;SDS011;39836;52.754;6.866;2023-08-31T01:56:11;19.80;;;7.85;;
53925;SDS011;39836;52.754;6.866;2023-08-31T01:58:38;20.05;;;7.38;;
53925;SDS011;39836;52.754;6.866;2023-08-31T02:01:04;11.77;;;7.40;;
53925;SDS011;39836;52.754;6.866;2023-08-31T02:03:30;16.90;;;8.10;;
53925;SDS011;39836;52.754;6.866;2023-08-31T02:05:56;11.73;;;7.30;;
53925;SDS011;39836;52.754;6.866;2023-08-31T02:08:22;18.23;;;9.13;;
53925;SDS011;39836;52.754;6.866;2023-08-31T02:10:48;17.10;;;8.27;;
53925;SDS011;39836;52.754;6.866;2023-08-31T02:13:14;15.23;;;8.45;;
53925;SDS011;39836;52.754;6.866;2023-08-31T02:15:41;20.70;;;8.77;;
53925;SDS011;39836;52.754;6.866;2023-08-31T02:18:07;19.40;;;9.23;;
53925;SDS011;39836;52.754;6.866;2023-08-31T02:20:33;17.73;;;9.27;;
53925;SDS011;39836;52.754;6.866;2023-08-31T02:22:59;14.32;;;9.48;;
53925;SDS011;39836;52.754;6.866;2023-08-31T02:25:25;14.48;;;9.30;;
53925;SDS011;39836;52.754;6.866;2023-08-31T02:27:53;15.82;;;9.80;;
53925;SDS011;39836;52.754;6.866;2023-08-31T02:30:19;19.58;;;10.02;;
53925;SDS011;39836;52.754;6.866;2023-08-31T02:32:44;18.35;;;8.95;;
53925;SDS011;39836;52.754;6.866;2023-08-31T02:35:10;16.02;;;10.13;;
53925;SDS011;39836;52.754;6.866;2023-08-31T02:37:37;18.75;;;10.07;;
53925;SDS011;39836;52.754;6.866;2023-08-31T02:40:03;17.77;;;11.02;;
53925;SDS011;39836;52.754;6.866;2023-08-31T02:42:31;21.67;;;10.70;;
53925;SDS011;39836;52.754;6.866;2023-08-31T02:44:56;17.42;;;11.23;;
53925;SDS011;39836;52.754;6.866;2023-08-31T02:47:22;18.70;;;11.65;;
53925;SDS011;39836;52.754;6.866;2023-08-31T02:49:48;18.23;;;12.18;;
53925;SDS011;39836;52.754;6.866;2023-08-31T02:52:14;21.50;;;12.07;;
53925;SDS011;39836;52.754;6.866;2023-08-31T02:54:39;22.55;;;12.43;;
53925;SDS011;39836;52.754;6.866;2023-08-31T02:57:05;18.60;;;13.18;;
53925;SDS011;39836;52.754;6.866;2023-08-31T02:59:31;21.60;;;13.60;;
53925;SDS011;39836;52.754;6.866;2023-08-31T03:02:01;20.10;;;13.25;;
53925;SDS011;39836;52.754;6.866;2023-08-31T03:04:27;23.02;;;14.52;;
53925;SDS011;39836;52.754;6.866;2023-08-31T03:06:53;24.15;;;13.80;;
53925;SDS011;39836;52.754;6.866;2023-08-31T03:09:18;23.38;;;14.55;;
53925;SDS011;39836;52.754;6.866;2023-08-31T03:11:45;18.92;;;13.23;;
53925;SDS011;39836;52.754;6.866;2023-08-31T03:14:11;21.02;;;14.15;;
53925;SDS011;39836;52.754;6.866;2023-08-31T03:16:37;17.83;;;13.95;;
53925;SDS011;39836;52.754;6.866;2023-08-31T03:19:02;19.95;;;13.70;;
53925;SDS011;39836;52.754;6.866;2023-08-31T03:21:28;20.20;;;14.82;;
53925;SDS011;39836;52.754;6.866;2023-08-31T03:23:54;17.35;;;13.80;;
53925;SDS011;39836;52.754;6.866;2023-08-31T03:26:20;19.70;;;14.73;;
53925;SDS011;39836;52.754;6.866;2023-08-31T03:28:45;17.35;;;12.88;;
53925;SDS011;39836;52.754;6.866;2023-08-31T03:31:11;17.05;;;11.95;;
53925;SDS011;39836;52.754;6.866;2023-08-31T03:33:37;15.35;;;11.68;;
53925;SDS011;39836;52.754;6.866;2023-08-31T03:36:03;14.18;;;10.77;;
53925;SDS011;39836;52.754;6.866;2023-08-31T03:38:32;13.10;;;9.77;;
53925;SDS011;39836;52.754;6.866;2023-08-31T03:41:02;13.90;;;10.82;;
53925;SDS011;39836;52.754;6.866;2023-08-31T03:43:28;15.15;;;11.13;;
53925;SDS011;39836;52.754;6.866;2023-08-31T03:45:54;13.80;;;10.50;;
53925;SDS011;39836;52.754;6.866;2023-08-31T03:48:21;12.82;;;10.38;;
53925;SDS011;39836;52.754;6.866;2023-08-31T03:50:51;17.30;;;11.20;;
53925;SDS011;39836;52.754;6.866;2023-08-31T03:53:17;14.77;;;10.18;;
53925;SDS011;39836;52.754;6.866;2023-08-31T03:55:43;17.70;;;11.43;;
53925;SDS011;39836;52.754;6.866;2023-08-31T03:58:08;21.65;;;10.00;;
53925;SDS011;39836;52.754;6.866;2023-08-31T04:00:34;54.72;;;11.32;;
53925;SDS011;39836;52.754;6.866;2023-08-31T04:03:00;15.75;;;11.27;;
53925;SDS011;39836;52.754;6.866;2023-08-31T04:05:26;14.27;;;10.27;;
53925;SDS011;39836;52.754;6.866;2023-08-31T04:07:52;15.43;;;11.15;;
53925;SDS011;39836;52.754;6.866;2023-08-31T04:10:17;14.25;;;10.63;;
53925;SDS011;39836;52.754;6.866;2023-08-31T04:12:44;15.80;;;10.88;;
53925;SDS011;39836;52.754;6.866;2023-08-31T04:15:09;13.40;;;10.35;;
53925;SDS011;39836;52.754;6.866;2023-08-31T04:17:36;14.25;;;11.23;;
53925;SDS011;39836;52.754;6.866;2023-08-31T04:20:02;17.40;;;11.05;;
53925;SDS011;39836;52.754;6.866;2023-08-31T04:22:30;15.57;;;10.82;;
53925;SDS011;39836;52.754;6.866;2023-08-31T04:24:56;13.95;;;9.57;;
53925;SDS011;39836;52.754;6.866;2023-08-31T04:27:22;12.07;;;9.98;;
53925;SDS011;39836;52.754;6.866;2023-08-31T04:29:47;13.88;;;10.02;;
53925;SDS011;39836;52.754;6.866;2023-08-31T04:32:13;12.23;;;9.85;;
53925;SDS011;39836;52.754;6.866;2023-08-31T04:34:39;12.60;;;9.30;;
53925;SDS011;39836;52.754;6.866;2023-08-31T04:37:04;14.57;;;8.35;;
53925;SDS011;39836;52.754;6.866;2023-08-31T04:39:30;12.57;;;9.07;;
53925;SDS011;39836;52.754;6.866;2023-08-31T04:41:56;13.45;;;9.10;;
53925;SDS011;39836;52.754;6.866;2023-08-31T04:44:21;11.02;;;8.43;;
53925;SDS011;39836;52.754;6.866;2023-08-31T04:46:47;13.27;;;9.73;;
53925;SDS011;39836;52.754;6.866;2023-08-31T04:49:13;14.20;;;8.38;;
53925;SDS011;39836;52.754;6.866;2023-08-31T04:51:39;14.82;;;8.68;;
53925;SDS011;39836;52.754;6.866;2023-08-31T04:54:06;15.23;;;8.65;;
53925;SDS011;39836;52.754;6.866;2023-08-31T04:56:32;14.63;;;8.27;;
53925;SDS011;39836;52.754;6.866;2023-08-31T04:58:59;11.70;;;8.35;;
53925;SDS011;39836;52.754;6.866;2023-08-31T05:01:25;10.68;;;7.90;;
53925;SDS011;39836;52.754;6.866;2023-08-31T05:03:51;15.88;;;7.53;;
53925;SDS011;39836;52.754;6.866;2023-08-31T05:06:16;14.32;;;7.68;;
53925;SDS011;39836;52.754;6.866;2023-08-31T05:08:42;13.23;;;8.15;;
53925;SDS011;39836;52.754;6.866;2023-08-31T05:11:08;10.75;;;7.75;;
53925;SDS011;39836;52.754;6.866;2023-08-31T05:13:33;13.68;;;8.05;;
53925;SDS011;39836;52.754;6.866;2023-08-31T05:15:59;12.57;;;7.82;;
53925;SDS011;39836;52.754;6.866;2023-08-31T05:18:25;12.80;;;8.35;;
53925;SDS011;39836;52.754;6.866;2023-08-31T05:20:51;12.27;;;8.50;;
53925;SDS011;39836;52.754;6.866;2023-08-31T05:23:17;12.80;;;8.57;;
53925;SDS011;39836;52.754;6.866;2023-08-31T05:25:43;11.80;;;8.13;;
53925;SDS011;39836;52.754;6.866;2023-08-31T05:28:09;13.57;;;8.95;;
53925;SDS011;39836;52.754;6.866;2023-08-31T05:30:35;13.65;;;8.63;;
53925;SDS011;39836;52.754;6.866;2023-08-31T05:33:01;11.52;;;8.18;;
53925;SDS011;39836;52.754;6.866;2023-08-31T05:35:28;14.55;;;8.73;;
53925;SDS011;39836;52.754;6.866;2023-08-31T05:37:53;12.15;;;8.50;;
53925;SDS011;39836;52.754;6.866;2023-08-31T05:40:19;11.90;;;8.50;;
53925;SDS011;39836;52.754;6.866;2023-08-31T05:42:46;14.63;;;9.38;;
53925;SDS011;39836;52.754;6.866;2023-08-31T05:45:11;15.32;;;9.32;;
53925;SDS011;39836;52.754;6.866;2023-08-31T05:47:38;13.20;;;9.95;;
53925;SDS011;39836;52.754;6.866;2023-08-31T05:50:06;11.75;;;8.65;;
53925;SDS011;39836;52.754;6.866;2023-08-31T05:52:32;13.13;;;8.70;;
53925;SDS011;39836;52.754;6.866;2023-08-31T05:54:58;11.88;;;9.25;;
53925;SDS011;39836;52.754;6.866;2023-08-31T05:57:23;16.65;;;10.43;;
53925;SDS011;39836;52.754;6.866;2023-08-31T05:59:50;18.45;;;9.70;;
53925;SDS011;39836;52.754;6.866;2023-08-31T06:02:16;14.73;;;9.90;;
53925;SDS011;39836;52.754;6.866;2023-08-31T06:04:42;13.73;;;9.93;;
53925;SDS011;39836;52.754;6.866;2023-08-31T06:07:08;15.45;;;10.45;;
53925;SDS011;39836;52.754;6.866;2023-08-31T06:09:34;17.75;;;10.43;;
53925;SDS011;39836;52.754;6.866;2023-08-31T06:12:00;15.48;;;9.93;;
53925;SDS011;39836;52.754;6.866;2023-08-31T06:14:25;13.85;;;10.55;;
53925;SDS011;39836;52.754;6.866;2023-08-31T06:16:51;16.42;;;10.23;;
53925;SDS011;39836;52.754;6.866;2023-08-31T06:19:17;14.05;;;9.82;;
53925;SDS011;39836;52.754;6.866;2023-08-31T06:21:43;12.63;;;10.52;;
53925;SDS011;39836;52.754;6.866;2023-08-31T06:24:09;15.63;;;10.52;;
53925;SDS011;39836;52.754;6.866;2023-08-31T06:26:38;16.05;;;10.48;;
53925;SDS011;39836;52.754;6.866;2023-08-31T06:29:04;15.30;;;9.57;;
53925;SDS011;39836;52.754;6.866;2023-08-31T06:31:30;16.40;;;10.45;;
53925;SDS011;39836;52.754;6.866;2023-08-31T06:33:55;16.95;;;12.27;;
53925;SDS011;39836;52.754;6.866;2023-08-31T06:36:23;17.80;;;10.07;;
53925;SDS011;39836;52.754;6.866;2023-08-31T06:38:49;13.82;;;9.85;;
53925;SDS011;39836;52.754;6.866;2023-08-31T06:41:14;13.57;;;10.50;;
53925;SDS011;39836;52.754;6.866;2023-08-31T06:43:40;18.35;;;10.43;;
53925;SDS011;39836;52.754;6.866;2023-08-31T06:46:06;18.15;;;10.65;;
53925;SDS011;39836;52.754;6.866;2023-08-31T06:48:32;18.75;;;10.07;;
53925;SDS011;39836;52.754;6.866;2023-08-31T06:50:58;17.08;;;10.80;;
53925;SDS011;39836;52.754;6.866;2023-08-31T06:53:24;18.67;;;10.82;;
53925;SDS011;39836;52.754;6.866;2023-08-31T06:55:49;22.23;;;10.75;;
53925;SDS011;39836;52.754;6.866;2023-08-31T06:58:15;12.77;;;9.68;;
53925;SDS011;39836;52.754;6.866;2023-08-31T07:00:41;21.35;;;10.02;;
53925;SDS011;39836;52.754;6.866;2023-08-31T07:03:07;15.32;;;8.65;;
53925;SDS011;39836;52.754;6.866;2023-08-31T07:05:33;15.20;;;9.30;;
53925;SDS011;39836;52.754;6.866;2023-08-31T07:08:02;14.30;;;8.73;;
53925;SDS011;39836;52.754;6.866;2023-08-31T07:10:28;17.90;;;8.60;;
53925;SDS011;39836;52.754;6.866;2023-08-31T07:12:53;14.73;;;8.45;;
53925;SDS011;39836;52.754;6.866;2023-08-31T07:15:19;14.15;;;7.95;;
53925;SDS011;39836;52.754;6.866;2023-08-31T07:17:45;12.38;;;7.38;;
53925;SDS011;39836;52.754;6.866;2023-08-31T07:20:11;14.82;;;7.47;;
53925;SDS011;39836;52.754;6.866;2023-08-31T07:22:37;14.38;;;8.10;;
53925;SDS011;39836;52.754;6.866;2023-08-31T07:25:03;17.35;;;8.20;;
53925;SDS011;39836;52.754;6.866;2023-08-31T07:27:31;11.18;;;6.50;;
53925;SDS011;39836;52.754;6.866;2023-08-31T07:29:56;14.60;;;7.97;;
53925;SDS011;39836;52.754;6.866;2023-08-31T07:32:22;14.25;;;6.68;;
53925;SDS011;39836;52.754;6.866;2023-08-31T07:34:48;16.58;;;7.35;;
53925;SDS011;39836;52.754;6.866;2023-08-31T07:37:13;15.80;;;6.75;;
53925;SDS011;39836;52.754;6.866;2023-08-31T07:39:39;10.95;;;6.53;;
53925;SDS011;39836;52.754;6.866;2023-08-31T07:42:05;12.93;;;6.35;;
53925;SDS011;39836;52.754;6.866;2023-08-31T07:44:31;11.63;;;6.18;;
53925;SDS011;39836;52.754;6.866;2023-08-31T07:46:56;9.88;;;6.03;;
53925;SDS011;39836;52.754;6.866;2023-08-31T07:49:22;9.68;;;6.03;;
53925;SDS011;39836;52.754;6.866;2023-08-31T07:51:48;13.23;;;6.53;;
53925;SDS011;39836;52.754;6.866;2023-08-31T07:54:23;11.65;;;6.25;;
53925;SDS011;39836;52.754;6.866;2023-08-31T07:56:49;9.07;;;6.00;;
53925;SDS011;39836;52.754;6.866;2023-08-31T07:59:15;12.45;;;6.07;;
53925;SDS011;39836;52.754;6.866;2023-08-31T08:01:42;11.63;;;6.10;;
53925;SDS011;39836;52.754;6.866;2023-08-31T08:04:08;10.90;;;4.97;;
53925;SDS011;39836;52.754;6.866;2023-08-31T08:06:34;11.15;;;4.50;;
53925;SDS011;39836;52.754;6.866;2023-08-31T08:08:59;7.78;;;4.50;;
53925;SDS011;39836;52.754;6.866;2023-08-31T08:11:25;12.77;;;4.45;;
53925;SDS011;39836;52.754;6.866;2023-08-31T08:13:51;10.20;;;4.40;;
53925;SDS011;39836;52.754;6.866;2023-08-31T08:16:16;8.20;;;3.88;;
53925;SDS011;39836;52.754;6.866;2023-08-31T08:18:42;8.13;;;3.67;;
53925;SDS011;39836;52.754;6.866;2023-08-31T08:21:07;8.15;;;3.65;;
53925;SDS011;39836;52.754;6.866;2023-08-31T08:23:33;6.45;;;3.30;;
53925;SDS011;39836;52.754;6.866;2023-08-31T08:25:59;7.60;;;3.25;;
53925;SDS011;39836;52.754;6.866;2023-08-31T08:28:25;8.98;;;2.90;;
53925;SDS011;39836;52.754;6.866;2023-08-31T08:30:51;8.02;;;2.90;;
53925;SDS011;39836;52.754;6.866;2023-08-31T08:33:17;6.40;;;2.60;;
53925;SDS011;39836;52.754;6.866;2023-08-31T08:35:42;5.40;;;2.90;;
53925;SDS011;39836;52.754;6.866;2023-08-31T08:38:08;6.10;;;2.72;;
53925;SDS011;39836;52.754;6.866;2023-08-31T08:40:34;6.07;;;2.53;;
53925;SDS011;39836;52.754;6.866;2023-08-31T08:43:00;4.50;;;1.75;;
53925;SDS011;39836;52.754;6.866;2023-08-31T08:45:27;6.78;;;2.22;;
53925;SDS011;39836;52.754;6.866;2023-08-31T08:47:57;6.63;;;2.40;;
53925;SDS011;39836;52.754;6.866;2023-08-31T08:50:23;2.83;;;1.48;;
53925;SDS011;39836;52.754;6.866;2023-08-31T08:52:49;4.45;;;1.70;;
53925;SDS011;39836;52.754;6.866;2023-08-31T08:55:16;9.27;;;1.90;;
53925;SDS011;39836;52.754;6.866;2023-08-31T08:57:42;3.92;;;1.30;;
53925;SDS011;39836;52.754;6.866;2023-08-31T09:00:07;3.05;;;1.30;;
53925;SDS011;39836;52.754;6.866;2023-08-31T09:02:34;5.20;;;1.75;;
53925;SDS011;39836;52.754;6.866;2023-08-31T09:04:59;3.00;;;1.50;;
53925;SDS011;39836;52.754;6.866;2023-08-31T09:07:26;8.20;;;1.67;;
53925;SDS011;39836;52.754;6.866;2023-08-31T09:09:54;3.13;;;1.35;;
53925;SDS011;39836;52.754;6.866;2023-08-31T09:12:21;4.35;;;1.27;;
53925;SDS011;39836;52.754;6.866;2023-08-31T09:14:58;5.53;;;1.48;;
53925;SDS011;39836;52.754;6.866;2023-08-31T09:17:42;1.90;;;1.00;;
53925;SDS011;39836;52.754;6.866;2023-08-31T09:20:12;3.65;;;0.90;;
53925;SDS011;39836;52.754;6.866;2023-08-31T09:22:38;4.10;;;0.88;;
53925;SDS011;39836;52.754;6.866;2023-08-31T09:25:12;2.83;;;1.08;;
53925;SDS011;39836;52.754;6.866;2023-08-31T09:27:38;2.33;;;1.10;;
53925;SDS011;39836;52.754;6.866;2023-08-31T09:30:06;9.35;;;1.08;;
53925;SDS011;39836;52.754;6.866;2023-08-31T09:32:32;1.83;;;0.80;;
53925;SDS011;39836;52.754;6.866;2023-08-31T09:34:58;4.55;;;1.05;;
53925;SDS011;39836;52.754;6.866;2023-08-31T09:37:27;5.32;;;1.10;;
53925;SDS011;39836;52.754;6.866;2023-08-31T09:39:53;3.72;;;1.38;;
53925;SDS011;39836;52.754;6.866;2023-08-31T09:42:19;4.50;;;1.20;;
53925;SDS011;39836;52.754;6.866;2023-08-31T09:44:45;5.22;;;1.20;;
53925;SDS011;39836;52.754;6.866;2023-08-31T09:47:14;7.15;;;1.02;;
53925;SDS011;39836;52.754;6.866;2023-08-31T09:49:41;2.15;;;1.10;;
53925;SDS011;39836;52.754;6.866;2023-08-31T09:52:08;4.88;;;1.35;;
53925;SDS011;39836;52.754;6.866;2023-08-31T09:54:35;2.67;;;1.63;;
53925;SDS011;39836;52.754;6.866;2023-08-31T14:39:58;6.95;;;1.38;;
53925;SDS011;39836;52.754;6.866;2023-08-31T18:16:59;7.45;;;1.95;;
53925;SDS011;39836;52.754;6.866;2023-08-31T18:19:25;5.80;;;1.80;;
53925;SDS011;39836;52.754;6.866;2023-08-31T18:21:55;6.13;;;1.55;;
53925;SDS011;39836;52.754;6.866;2023-08-31T18:24:24;8.88;;;2.17;;
53925;SDS011;39836;52.754;6.866;2023-08-31T18:26:50;5.82;;;1.80;;
53925;SDS011;39836;52.754;6.866;2023-08-31T18:29:16;4.90;;;1.55;;
53925;SDS011;39836;52.754;6.866;2023-08-31T18:31:43;6.75;;;1.65;;
53925;SDS011;39836;52.754;6.866;2023-08-31T18:34:08;3.92;;;1.33;;
53925;SDS011;39836;52.754;6.866;2023-08-31T18:36:34;3.30;;;1.33;;
53925;SDS011;39836;52.754;6.866;2023-08-31T18:39:01;4.05;;;1.35;;
53925;SDS011;39836;52.754;6.866;2023-08-31T18:41:32;7.45;;;1.75;;
53925;SDS011;39836;52.754;6.866;2023-08-31T18:43:58;5.72;;;1.95;;
53925;SDS011;39836;52.754;6.866;2023-08-31T18:46:25;4.55;;;1.80;;
53925;SDS011;39836;52.754;6.866;2023-08-31T18:48:50;5.05;;;1.50;;
53925;SDS011;39836;52.754;6.866;2023-08-31T18:51:16;12.05;;;2.30;;
53925;SDS011;39836;52.754;6.866;2023-08-31T18:53:41;4.65;;;1.55;;
53925;SDS011;39836;52.754;6.866;2023-08-31T18:56:07;5.97;;;1.80;;
53925;SDS011;39836;52.754;6.866;2023-08-31T18:58:33;5.78;;;1.83;;
53925;SDS011;39836;52.754;6.866;2023-08-31T19:00:58;5.18;;;1.80;;
53925;SDS011;39836;52.754;6.866;2023-08-31T19:03:27;7.75;;;1.95;;
53925;SDS011;39836;52.754;6.866;2023-08-31T19:05:54;3.97;;;1.88;;
53925;SDS011;39836;52.754;6.866;2023-08-31T19:08:20;8.43;;;2.13;;
53925;SDS011;39836;52.754;6.866;2023-08-31T19:10:46;6.50;;;1.95;;
53925;SDS011;39836;52.754;6.866;2023-08-31T19:13:12;5.38;;;1.83;;
53925;SDS011;39836;52.754;6.866;2023-08-31T19:15:38;5.65;;;1.98;;
53925;SDS011;39836;52.754;6.866;2023-08-31T19:18:04;6.78;;;2.10;;
53925;SDS011;39836;52.754;6.866;2023-08-31T19:20:33;8.27;;;2.13;;
53925;SDS011;39836;52.754;6.866;2023-08-31T19:23:00;6.35;;;1.80;;
53925;SDS011;39836;52.754;6.866;2023-08-31T19:25:28;8.07;;;2.33;;
53925;SDS011;39836;52.754;6.866;2023-08-31T19:28:02;5.60;;;2.03;;
53925;SDS011;39836;52.754;6.866;2023-08-31T19:30:28;8.32;;;2.25;;
53925;SDS011;39836;52.754;6.866;2023-08-31T19:32:55;4.22;;;1.92;;
53925;SDS011;39836;52.754;6.866;2023-08-31T19:35:21;12.82;;;2.03;;
53925;SDS011;39836;52.754;6.866;2023-08-31T19:37:48;4.63;;;1.77;;
53925;SDS011;39836;52.754;6.866;2023-08-31T19:40:17;7.85;;;2.17;;
53925;SDS011;39836;52.754;6.866;2023-08-31T19:42:47;6.53;;;1.80;;
53925;SDS011;39836;52.754;6.866;2023-08-31T19:45:13;3.50;;;1.95;;
53925;SDS011;39836;52.754;6.866;2023-08-31T19:47:42;7.90;;;2.35;;
53925;SDS011;39836;52.754;6.866;2023-08-31T19:50:10;8.15;;;2.30;;
53925;SDS011;39836;52.754;6.866;2023-08-31T19:52:36;8.25;;;2.70;;
53925;SDS011;39836;52.754;6.866;2023-08-31T19:55:02;5.43;;;2.30;;
53925;SDS011;39836;52.754;6.866;2023-08-31T19:57:28;5.55;;;2.83;;
53925;SDS011;39836;52.754;6.866;2023-08-31T19:59:54;8.88;;;3.17;;
53925;SDS011;39836;52.754;6.866;2023-08-31T20:02:19;13.88;;;3.10;;
53925;SDS011;39836;52.754;6.866;2023-08-31T20:04:45;4.82;;;2.22;;
53925;SDS011;39836;52.754;6.866;2023-08-31T20:07:12;7.97;;;2.80;;
53925;SDS011;39836;52.754;6.866;2023-08-31T20:09:38;6.32;;;2.63;;
53925;SDS011;39836;52.754;6.866;2023-08-31T20:12:04;5.63;;;2.13;;
53925;SDS011;39836;52.754;6.866;2023-08-31T20:14:30;6.35;;;2.60;;
53925;SDS011;39836;52.754;6.866;2023-08-31T20:16:56;5.88;;;2.80;;
53925;SDS011;39836;52.754;6.866;2023-08-31T20:19:22;8.43;;;2.75;;
53925;SDS011;39836;52.754;6.866;2023-08-31T20:21:48;7.10;;;2.85;;
53925;SDS011;39836;52.754;6.866;2023-08-31T20:24:14;9.20;;;3.15;;
53925;SDS011;39836;52.754;6.866;2023-08-31T20:26:40;5.45;;;3.05;;
53925;SDS011;39836;52.754;6.866;2023-08-31T20:29:05;6.07;;;2.88;;
53925;SDS011;39836;52.754;6.866;2023-08-31T20:31:31;7.80;;;2.30;;
53925;SDS011;39836;52.754;6.866;2023-08-31T20:33:57;4.80;;;2.10;;
53925;SDS011;39836;52.754;6.866;2023-08-31T20:36:23;4.72;;;2.00;;
53925;SDS011;39836;52.754;6.866;2023-08-31T20:38:49;7.40;;;2.00;;
53925;SDS011;39836;52.754;6.866;2023-08-31T20:41:15;5.60;;;2.17;;
53925;SDS011;39836;52.754;6.866;2023-08-31T20:43:41;6.28;;;2.75;;
53925;SDS011;39836;52.754;6.866;2023-08-31T20:46:07;7.35;;;2.35;;
53925;SDS011;39836;52.754;6.866;2023-08-31T20:48:35;5.95;;;2.60;;
53925;SDS011;39836;52.754;6.866;2023-08-31T20:51:03;8.25;;;2.95;;
53925;SDS011;39836;52.754;6.866;2023-08-31T20:53:30;4.40;;;1.30;;
53925;SDS011;39836;52.754;6.866;2023-08-31T20:56:10;1.63;;;1.20;;
53925;SDS011;39836;52.754;6.866;2023-08-31T20:58:37;1.20;;;1.10;;
53925;SDS011;39836;52.754;6.866;2023-08-31T21:01:07;2.95;;;1.38;;
53925;SDS011;39836;52.754;6.866;2023-08-31T21:03:36;2.60;;;1.30;;
53925;SDS011;39836;52.754;6.866;2023-08-31T21:06:06;5.45;;;2.20;;
53925;SDS011;39836;52.754;6.866;2023-08-31T21:08:32;6.20;;;2.65;;
53925;SDS011;39836;52.754;6.866;2023-08-31T21:10:59;4.57;;;1.80;;
53925;SDS011;39836;52.754;6.866;2023-08-31T21:13:28;2.78;;;1.50;;
53925;SDS011;39836;52.754;6.866;2023-08-31T21:15:54;1.98;;;1.20;;
53925;SDS011;39836;52.754;6.866;2023-08-31T21:18:23;1.00;;;0.90;;
53925;SDS011;39836;52.754;6.866;2023-08-31T21:20:51;3.95;;;1.50;;
53925;SDS011;39836;52.754;6.866;2023-08-31T21:23:17;9.38;;;3.28;;
53925;SDS011;39836;52.754;6.866;2023-08-31T21:25:43;8.60;;;3.60;;
53925;SDS011;39836;52.754;6.866;2023-08-31T21:28:09;6.75;;;3.15;;
53925;SDS011;39836;52.754;6.866;2023-08-31T21:30:35;8.18;;;3.85;;
53925;SDS011;39836;52.754;6.866;2023-08-31T21:33:08;9.07;;;3.65;;
53925;SDS011;39836;52.754;6.866;2023-08-31T21:35:34;9.23;;;3.50;;
53925;SDS011;39836;52.754;6.866;2023-08-31T21:38:04;5.40;;;3.40;;
53925;SDS011;39836;52.754;6.866;2023-08-31T21:40:37;10.15;;;4.07;;
53925;SDS011;39836;52.754;6.866;2023-08-31T21:43:05;5.90;;;2.75;;
53925;SDS011;39836;52.754;6.866;2023-08-31T21:45:32;4.82;;;2.38;;
53925;SDS011;39836;52.754;6.866;2023-08-31T21:47:58;13.00;;;2.65;;
53925;SDS011;39836;52.754;6.866;2023-08-31T21:50:24;25.88;;;2.90;;
53925;SDS011;39836;52.754;6.866;2023-08-31T21:52:51;20.10;;;2.83;;
53925;SDS011;39836;52.754;6.866;2023-08-31T21:55:18;10.63;;;3.20;;
53925;SDS011;39836;52.754;6.866;2023-08-31T21:57:43;8.65;;;3.13;;
53925;SDS011;39836;52.754;6.866;2023-08-31T22:00:10;66.95;;;3.35;;
53925;SDS011;39836;52.754;6.866;2023-08-31T22:02:42;5.82;;;3.15;;
53925;SDS011;39836;52.754;6.866;2023-08-31T22:05:14;10.23;;;3.20;;
53925;SDS011;39836;52.754;6.866;2023-08-31T22:07:44;12.43;;;4.90;;
53925;SDS011;39836;52.754;6.866;2023-08-31T22:10:10;15.52;;;4.45;;
53925;SDS011;39836;52.754;6.866;2023-08-31T22:12:37;69.80;;;4.80;;
53925;SDS011;39836;52.754;6.866;2023-08-31T22:15:13;14.02;;;5.88;;
53925;SDS011;39836;52.754;6.866;2023-08-31T22:17:41;12.68;;;4.38;;
53925;SDS011;39836;52.754;6.866;2023-08-31T22:20:08;10.27;;;4.07;;
53925;SDS011;39836;52.754;6.866;2023-08-31T22:22:41;7.78;;;4.25;;
53925;SDS011;39836;52.754;6.866;2023-08-31T22:25:07;11.57;;;4.03;;
53925;SDS011;39836;52.754;6.866;2023-08-31T22:27:34;9.88;;;4.85;;
53925;SDS011;39836;52.754;6.866;2023-08-31T22:30:01;10.82;;;5.03;;
53925;SDS011;39836;52.754;6.866;2023-08-31T22:32:28;7.55;;;5.30;;
53925;SDS011;39836;52.754;6.866;2023-08-31T22:34:54;10.38;;;5.43;;
53925;SDS011;39836;52.754;6.866;2023-08-31T22:37:19;15.35;;;5.80;;
53925;SDS011;39836;52.754;6.866;2023-08-31T22:39:45;8.02;;;5.25;;
53925;SDS011;39836;52.754;6.866;2023-08-31T22:42:10;9.57;;;5.25;;
53925;SDS011;39836;52.754;6.866;2023-08-31T22:44:36;9.85;;;4.82;;
53925;SDS011;39836;52.754;6.866;2023-08-31T22:47:02;11.25;;;4.97;;
53925;SDS011;39836;52.754;6.866;2023-08-31T22:49:28;12.05;;;5.15;;
53925;SDS011;39836;52.754;6.866;2023-08-31T22:51:54;9.15;;;5.15;;
53925;SDS011;39836;52.754;6.866;2023-08-31T22:54:19;8.25;;;5.63;;
53925;SDS011;39836;52.754;6.866;2023-08-31T22:56:45;10.43;;;5.47;;
53925;SDS011;39836;52.754;6.866;2023-08-31T22:59:11;8.85;;;4.75;;
53925;SDS011;39836;52.754;6.866;2023-08-31T23:01:37;12.43;;;5.40;;